Aviation Digital Data Service (ADDS)

Output produced by METARs form (1946 UTC 28 April 2017)
found at http://aviationweather.gov/adds/metars/
 
METAR text: KONP 281935Z AUTO 33008KT 10SM OVC050 11/06 A3043 RMK AO2
Conditions at: KONP (NEWPORT , OR, US) observed 1935 UTC 28 April 2017
Temperature: 11.0°C (52°F)
Dewpoint: 6.0°C (43°F) [RH = 71%]
Pressure (altimeter): 30.43 inches Hg (1030.6 mb)
Winds: from the NNW (330 degrees) at 9 MPH (8 knots; 4.2 m/s)
Visibility: 10 or more miles (16+ km)
Ceiling: 5000 feet AGL
Clouds: overcast cloud deck at 5000 feet AGL
Weather: automated observation with no human augmentation;
there may or may not be significant weather present at this time

METAR text: KONP 281915Z AUTO 32008KT 10SM SCT036 OVC050 11/06 A3043 RMK AO2
Conditions at: KONP (NEWPORT , OR, US) observed 1915 UTC 28 April 2017
Temperature: 11.0°C (52°F)
Dewpoint: 6.0°C (43°F) [RH = 71%]
Pressure (altimeter): 30.43 inches Hg (1030.6 mb)
Winds: from the NW (320 degrees) at 9 MPH (8 knots; 4.2 m/s)
Visibility: 10 or more miles (16+ km)
Ceiling: 5000 feet AGL
Clouds: scattered clouds at 3600 feet AGL
overcast cloud deck at 5000 feet AGL
Weather: automated observation with no human augmentation;
there may or may not be significant weather present at this time

METAR text: KONP 281855Z AUTO 32009KT 10SM SCT022 SCT034 OVC048 11/06 A3042 RMK AO2
Conditions at: KONP (NEWPORT , OR, US) observed 1855 UTC 28 April 2017
Temperature: 11.0°C (52°F)
Dewpoint: 6.0°C (43°F) [RH = 71%]
Pressure (altimeter): 30.42 inches Hg (1030.2 mb)
Winds: from the NW (320 degrees) at 10 MPH (9 knots; 4.7 m/s)
Visibility: 10 or more miles (16+ km)
Ceiling: 4800 feet AGL
Clouds: scattered clouds at 2200 feet AGL
scattered clouds at 3400 feet AGL
overcast cloud deck at 4800 feet AGL
Weather: automated observation with no human augmentation;
there may or may not be significant weather present at this time

METAR text: KONP 281835Z AUTO 31004KT 10SM SCT024 BKN041 OVC048 10/06 A3042 RMK AO2
Conditions at: KONP (NEWPORT , OR, US) observed 1835 UTC 28 April 2017
Temperature: 10.0°C (50°F)
Dewpoint: 6.0°C (43°F) [RH = 76%]
Pressure (altimeter): 30.42 inches Hg (1030.2 mb)
Winds: from the NW (310 degrees) at 5 MPH (4 knots; 2.1 m/s)
Visibility: 10 or more miles (16+ km)
Ceiling: 4100 feet AGL
Clouds: scattered clouds at 2400 feet AGL
broken clouds at 4100 feet AGL
overcast cloud deck at 4800 feet AGL
Weather: automated observation with no human augmentation;
there may or may not be significant weather present at this time

METAR text: KONP 281815Z AUTO 34004KT 10SM SCT035 BKN045 09/06 A3042 RMK AO2
Conditions at: KONP (NEWPORT , OR, US) observed 1815 UTC 28 April 2017
Temperature: 9.0°C (48°F)
Dewpoint: 6.0°C (43°F) [RH = 81%]
Pressure (altimeter): 30.42 inches Hg (1030.2 mb)
Winds: from the NNW (340 degrees) at 5 MPH (4 knots; 2.1 m/s)
Visibility: 10 or more miles (16+ km)
Ceiling: 4500 feet AGL
Clouds: scattered clouds at 3500 feet AGL
broken clouds at 4500 feet AGL
Weather: automated observation with no human augmentation;
there may or may not be significant weather present at this time

METAR text: KONP 281755Z AUTO 33006KT 10SM BKN026 BKN036 OVC042 10/06 A3041 RMK AO2
Conditions at: KONP (NEWPORT , OR, US) observed 1755 UTC 28 April 2017
Temperature: 10.0°C (50°F)
Dewpoint: 6.0°C (43°F) [RH = 76%]
Pressure (altimeter): 30.41 inches Hg (1029.9 mb)
Winds: from the NNW (330 degrees) at 7 MPH (6 knots; 3.1 m/s)
Visibility: 10 or more miles (16+ km)
Ceiling: 2600 feet AGL
Clouds: broken clouds at 2600 feet AGL
broken clouds at 3600 feet AGL
overcast cloud deck at 4200 feet AGL
Weather: automated observation with no human augmentation;
there may or may not be significant weather present at this time

Forecast for: KONP (NEWPORT , OR, US)
Text: KONP 281934Z 2820/2918 34008KT P6SM SCT050
Forecast period: 2000 to 2300 UTC 28 April 2017
Forecast type: FROM: standard forecast or significant change
Winds: from the NNW (340 degrees) at 9 MPH (8 knots; 4.2 m/s)
Visibility: 6 or more miles (10+ km)
Clouds: scattered clouds at 5000 feet AGL
Weather: no significant weather forecast for this period
Text: FM282300 34011KT P6SM FEW050
Forecast period: 2300 UTC 28 April 2017 to 0400 UTC 29 April 2017
Forecast type: FROM: standard forecast or significant change
Winds: from the NNW (340 degrees) at 13 MPH (11 knots; 5.7 m/s)
Visibility: 6 or more miles (10+ km)
Clouds: few clouds at 5000 feet AGL
Weather: no significant weather forecast for this period
Text: FM290400 30006KT P6SM SCT250
Forecast period: 0400 to 0900 UTC 29 April 2017
Forecast type: FROM: standard forecast or significant change
Winds: from the WNW (300 degrees) at 7 MPH (6 knots; 3.1 m/s)
Visibility: 6 or more miles (10+ km)
Clouds: scattered clouds at 25000 feet AGL
Weather: no significant weather forecast for this period
Text: FM290900 VRB03KT P6SM FEW100 BKN250
Forecast period: 0900 to 1800 UTC 29 April 2017
Forecast type: FROM: standard forecast or significant change
Winds: variable direction winds at 3 MPH (3 knots; 1.6 m/s)
Visibility: 6 or more miles (10+ km)
Ceiling: 25000 feet AGL
Clouds: few clouds at 10000 feet AGL
broken clouds at 25000 feet AGL
Weather: no significant weather forecast for this period